Time;durP1;ratioP1;P1;durP2;ratioP2;P2;SDS_P1;SDS_P2;PMS_P1;PMS_P2;Temp;Humidity;BMP_temperature;BMP_pressure;BME280_temperature;BME280_humidity;BME280_pressure;Samples;Min_cycle;Max_cycle;Signal;HPM_P1;HPM_P2
2021/11/23 00:01:23;;;;;;;7.50;6.87;;;;;;;-2.53;100.00;99100.84;4993326;28;21305;-73
2021/11/23 00:03:51;;;;;;;7.20;6.60;;;;;;;-2.59;100.00;99088.09;4982523;28;20442;-71
2021/11/23 00:06:19;;;;;;;7.20;6.60;;;;;;;-2.54;100.00;99097.41;4992021;28;20429;-72
2021/11/23 00:08:47;;;;;;;7.03;6.43;;;;;;;-2.67;100.00;99096.13;4996090;28;20451;-71
2021/11/23 00:11:17;;;;;;;7.77;6.97;;;;;;;-2.76;100.00;99095.56;4959363;28;20889;-72
2021/11/23 00:13:45;;;;;;;7.87;7.10;;;;;;;-2.84;100.00;99094.13;4983121;28;20220;-72
2021/11/23 00:16:16;;;;;;;9.20;7.80;;;;;;;-2.89;100.00;99096.88;4992846;28;20291;-72
2021/11/23 00:18:44;;;;;;;7.77;7.07;;;;;;;-2.93;100.00;99103.91;4980796;28;20219;-69
2021/11/23 00:21:12;;;;;;;7.10;6.40;;;;;;;-2.83;100.00;99091.47;4986727;28;20492;-72
2021/11/23 00:23:41;;;;;;;7.77;7.27;;;;;;;-2.93;100.00;99098.72;4989492;28;20455;-72
2021/11/23 00:26:09;;;;;;;7.53;6.87;;;;;;;-3.08;100.00;99097.47;4986167;28;20212;-70
2021/11/23 00:28:38;;;;;;;7.97;7.17;;;;;;;-3.13;100.00;99094.19;4965109;28;20467;-71
2021/11/23 00:31:06;;;;;;;7.90;7.13;;;;;;;-3.23;100.00;99098.84;4990217;28;20498;-71
2021/11/23 00:33:40;;;;;;;7.30;6.60;;;;;;;-3.19;100.00;99099.59;4975149;28;20453;-73
2021/11/23 00:36:09;;;;;;;6.63;6.03;;;;;;;-3.03;100.00;99105.13;4987566;28;20455;-73
2021/11/23 00:38:41;;;;;;;6.90;6.30;;;;;;;-3.06;100.00;99095.69;4995426;28;20459;-73
2021/11/23 00:41:10;;;;;;;6.87;6.27;;;;;;;-3.09;100.00;99108.75;4986524;28;20684;-73
2021/11/23 00:43:39;;;;;;;7.90;7.07;;;;;;;-3.02;100.00;99112.00;4962918;28;20225;-73
2021/11/23 00:46:07;;;;;;;7.33;6.70;;;;;;;-2.97;100.00;99114.47;4995321;28;20444;-73
2021/11/23 00:48:35;;;;;;;7.07;6.47;;;;;;;-2.90;100.00;99115.94;4978383;28;20964;-75
2021/11/23 00:51:04;;;;;;;9.47;7.43;;;;;;;-2.89;100.00;99104.66;4991442;28;20463;-72
2021/11/23 00:53:33;;;;;;;7.10;6.50;;;;;;;-2.77;100.00;99104.25;4990165;28;20439;-74
2021/11/23 00:56:01;;;;;;;7.47;6.77;;;;;;;-2.73;100.00;99107.59;4986005;28;20940;-72
2021/11/23 00:58:29;;;;;;;7.37;6.70;;;;;;;-2.79;100.00;99105.22;4966377;28;22375;-74
2021/11/23 01:00:58;;;;;;;7.87;7.17;;;;;;;-2.89;100.00;99109.84;4993745;28;20488;-72
2021/11/23 01:03:29;;;;;;;7.23;6.53;;;;;;;-2.93;100.00;99106.50;4985100;28;22367;-73
2021/11/23 01:05:58;;;;;;;7.00;6.40;;;;;;;-2.87;100.00;99104.59;4977975;28;20453;-73
2021/11/23 01:08:27;;;;;;;6.97;6.27;;;;;;;-2.95;100.00;99110.91;4992642;28;20731;-74
2021/11/23 01:10:55;;;;;;;7.40;6.70;;;;;;;-3.12;100.00;99108.88;4990926;28;20887;-72
2021/11/23 01:13:24;;;;;;;7.63;6.93;;;;;;;-3.25;100.00;99107.56;4994426;28;20503;-74
2021/11/23 01:15:52;;;;;;;7.10;6.40;;;;;;;-3.24;100.00;99114.47;4959635;28;20456;-73
2021/11/23 01:18:21;;;;;;;7.13;6.53;;;;;;;-3.30;100.00;99114.66;4988597;28;21173;-74
2021/11/23 01:20:50;;;;;;;7.80;6.70;;;;;;;-3.32;100.00;99114.69;4966876;28;20504;-72
2021/11/23 01:23:18;;;;;;;7.70;7.07;;;;;;;-3.30;100.00;99107.72;4991580;28;20443;-73
2021/11/23 01:25:46;;;;;;;7.63;6.93;;;;;;;-3.34;100.00;99116.47;4986571;28;20443;-73
2021/11/23 01:28:14;;;;;;;6.77;6.17;;;;;;;-3.45;100.00;99110.81;4988289;28;20840;-73
2021/11/23 01:30:43;;;;;;;7.53;6.93;;;;;;;-3.55;100.00;99113.69;4966313;28;20475;-71
2021/11/23 01:33:11;;;;;;;8.50;7.43;;;;;;;-3.61;100.00;99108.66;4947818;28;20473;-71
2021/11/23 01:35:40;;;;;;;5.87;5.37;;;;;;;-3.66;100.00;99110.56;4995764;28;20447;-74
2021/11/23 01:38:09;;;;;;;8.57;7.67;;;;;;;-3.67;100.00;99112.31;4978102;28;20455;-72
2021/11/23 01:40:37;;;;;;;7.83;7.03;;;;;;;-3.74;100.00;99117.72;4994896;28;20236;-71
2021/11/23 01:43:06;;;;;;;8.00;7.30;;;;;;;-3.76;100.00;99124.69;4982539;28;20722;-71
2021/11/23 01:45:34;;;;;;;7.30;6.60;;;;;;;-3.73;100.00;99114.22;4990944;28;20443;-72
2021/11/23 01:48:03;;;;;;;7.70;6.80;;;;;;;-3.69;100.00;99111.50;4959925;28;20448;-71
2021/11/23 01:50:31;;;;;;;8.63;7.80;;;;;;;-3.67;100.00;99108.88;4995243;28;20459;-73
2021/11/23 01:53:04;;;;;;;7.57;6.83;;;;;;;-3.72;100.00;99116.78;4981176;28;20449;-71
2021/11/23 01:55:33;;;;;;;7.37;6.77;;;;;;;-3.70;100.00;99114.13;4993399;28;20440;-72
2021/11/23 01:58:01;;;;;;;9.13;7.77;;;;;;;-3.70;100.00;99119.31;4983165;28;20445;-70
2021/11/23 02:00:30;;;;;;;8.37;7.50;;;;;;;-3.75;100.00;99121.22;4998740;28;20498;-71
2021/11/23 02:02:58;;;;;;;7.57;6.87;;;;;;;-3.81;100.00;99123.09;4958575;28;20440;-71
2021/11/23 02:05:26;;;;;;;7.00;6.40;;;;;;;-3.90;100.00;99114.72;4985958;28;21031;-73
2021/11/23 02:07:54;;;;;;;7.97;7.27;;;;;;;-3.97;100.00;99117.50;4987380;28;20455;-71
2021/11/23 02:10:24;;;;;;;7.27;6.73;;;;;;;-4.03;100.00;99115.09;4980323;28;20658;-72
2021/11/23 02:12:52;;;;;;;7.57;6.90;;;;;;;-4.04;100.00;99120.31;4993050;28;20822;-71
2021/11/23 02:15:20;;;;;;;7.83;7.20;;;;;;;-3.92;100.00;99114.78;4986248;28;20716;-72
2021/11/23 02:17:48;;;;;;;7.07;6.47;;;;;;;-3.91;100.00;99111.31;4991619;28;20569;-71
2021/11/23 02:20:19;;;;;;;8.13;7.53;;;;;;;-3.76;100.00;99110.00;4962188;28;20476;-71
2021/11/23 02:22:48;;;;;;;6.80;6.20;;;;;;;-3.71;100.00;99097.75;4992529;28;20451;-71
2021/11/23 02:25:17;;;;;;;7.70;7.00;;;;;;;-3.65;100.00;99104.47;4980837;28;20859;-72
2021/11/23 02:27:46;;;;;;;7.57;6.97;;;;;;;-3.63;100.00;99100.97;4989919;28;20459;-73
2021/11/23 02:30:14;;;;;;;9.47;7.53;;;;;;;-3.61;100.00;99098.31;4989912;28;20468;-72
2021/11/23 02:32:45;;;;;;;8.73;7.23;;;;;;;-3.76;100.00;99097.06;4987549;28;20768;-70
2021/11/23 02:35:13;;;;;;;8.90;8.00;;;;;;;-3.71;100.00;99094.31;4953068;28;20468;-73
2021/11/23 02:37:44;;;;;;;8.67;7.83;;;;;;;-3.70;100.00;99098.59;4992724;28;20459;-73
2021/11/23 02:40:13;;;;;;;8.50;7.70;;;;;;;-3.67;100.00;99095.91;4978948;28;21146;-73
2021/11/23 02:42:41;;;;;;;8.77;7.97;;;;;;;-3.65;100.00;99084.63;4990158;28;20491;-72
2021/11/23 02:45:10;;;;;;;9.00;8.20;;;;;;;-3.73;100.00;99085.75;4984324;28;20739;-71
2021/11/23 02:47:39;;;;;;;8.93;8.10;;;;;;;-3.87;100.00;99079.25;4993339;28;20451;-72
2021/11/23 02:50:09;;;;;;;8.80;7.93;;;;;;;-3.95;100.00;99079.47;4957933;28;21084;-70
2021/11/23 02:52:37;;;;;;;8.87;7.60;;;;;;;-3.88;100.00;99079.28;4997181;28;20458;-72
2021/11/23 02:55:07;;;;;;;9.37;7.23;;;;;;;-3.90;100.00;99079.34;4992325;28;20459;-71
2021/11/23 02:57:35;;;;;;;8.27;7.47;;;;;;;-3.85;100.00;99086.94;4990459;28;20455;-73
2021/11/23 03:00:10;;;;;;;8.13;7.37;;;;;;;-3.93;100.00;99087.19;4992731;28;20546;-72
2021/11/23 03:02:38;;;;;;;8.13;7.27;;;;;;;-3.96;100.00;99095.06;4987497;28;20555;-73
2021/11/23 03:05:08;;;;;;;7.87;7.20;;;;;;;-3.94;100.00;99096.69;4989370;28;21164;-73
2021/11/23 03:07:36;;;;;;;8.03;7.37;;;;;;;-4.04;100.00;99095.28;4964581;28;20501;-72
2021/11/23 03:10:05;;;;;;;8.17;7.33;;;;;;;-4.07;100.00;99103.13;4990612;28;20479;-73
2021/11/23 03:12:34;;;;;;;7.77;7.07;;;;;;;-3.88;100.00;99094.81;4983770;28;20451;-73
2021/11/23 03:15:02;;;;;;;7.63;7.03;;;;;;;-3.88;100.00;99102.59;4992011;28;20444;-73
2021/11/23 03:17:30;;;;;;;8.03;7.23;;;;;;;-3.84;100.00;99106.78;4995534;28;20443;-73
2021/11/23 03:19:58;;;;;;;9.67;8.77;;;;;;;-3.93;100.00;99102.75;4991381;28;20491;-71
2021/11/23 03:22:26;;;;;;;7.53;6.83;;;;;;;-3.97;100.00;99109.75;4966164;28;20570;-72
2021/11/23 03:24:55;;;;;;;6.67;6.07;;;;;;;-3.98;100.00;99102.88;4988108;28;20463;-71
2021/11/23 03:27:23;;;;;;;8.77;7.53;;;;;;;-4.00;100.00;99091.72;4984801;28;20448;-72
2021/11/23 03:29:52;;;;;;;8.70;7.73;;;;;;;-4.10;100.00;99104.06;4992943;28;20472;-71
2021/11/23 03:32:20;;;;;;;8.97;7.67;;;;;;;-4.04;100.00;99095.28;4995339;28;20447;-72
2021/11/23 03:34:50;;;;;;;8.60;7.27;;;;;;;-4.07;100.00;99095.38;4981374;28;21835;-71
2021/11/23 03:37:20;;;;;;;8.90;8.10;;;;;;;-4.12;100.00;99098.09;4961447;28;20463;-71
2021/11/23 03:39:49;;;;;;;7.97;7.27;;;;;;;-4.09;100.00;99105.75;4954714;28;21204;-70
2021/11/23 03:42:18;;;;;;;8.13;7.33;;;;;;;-3.92;100.00;99105.28;4976756;28;20481;-68
2021/11/23 03:44:47;;;;;;;7.80;7.20;;;;;;;-4.08;100.00;99106.63;4979014;28;20464;-67
2021/11/23 03:47:19;;;;;;;8.13;7.33;;;;;;;-4.04;100.00;99109.94;4989736;28;20439;-69
2021/11/23 03:49:47;;;;;;;8.53;7.27;;;;;;;-3.79;100.00;99110.06;4991591;28;20468;-68
2021/11/23 03:52:15;;;;;;;10.43;8.17;;;;;;;-3.94;100.00;99119.19;4976774;28;20721;-69
2021/11/23 03:54:43;;;;;;;9.27;8.37;;;;;;;-3.89;100.00;99112.13;4957470;28;20575;-72
2021/11/23 03:57:11;;;;;;;8.70;7.87;;;;;;;-3.96;100.00;99118.38;4978731;28;20599;-72
2021/11/23 03:59:39;;;;;;;9.40;8.43;;;;;;;-3.97;100.00;99116.69;4990145;28;20904;-72
2021/11/23 04:02:07;;;;;;;8.23;7.50;;;;;;;-4.08;100.00;99116.97;4989782;28;20498;-70
2021/11/23 04:04:38;;;;;;;9.07;8.17;;;;;;;-4.08;100.00;99116.97;4989617;28;21226;-72
2021/11/23 04:07:06;;;;;;;9.30;8.30;;;;;;;-4.10;100.00;99127.38;4992368;28;20967;-69
2021/11/23 04:09:34;;;;;;;8.80;7.97;;;;;;;-4.17;100.00;99115.50;4961000;28;20452;-72
2021/11/23 04:12:02;;;;;;;11.73;7.93;;;;;;;-4.17;100.00;99125.84;4989133;28;20451;-70
2021/11/23 04:14:31;;;;;;;9.60;8.37;;;;;;;-4.21;100.00;99129.41;4994598;28;21006;-72
2021/11/23 04:16:59;;;;;;;9.20;8.30;;;;;;;-4.29;100.00;99126.22;4988227;28;20448;-71
2021/11/23 04:19:28;;;;;;;10.17;8.73;;;;;;;-4.33;100.00;99122.00;4991621;28;20801;-72
2021/11/23 04:21:58;;;;;;;9.93;8.73;;;;;;;-4.42;100.00;99118.75;4989279;28;20511;-70
2021/11/23 04:24:27;;;;;;;12.20;9.33;;;;;;;-4.47;100.00;99125.78;4956620;28;20439;-70
2021/11/23 04:26:55;;;;;;;9.30;8.37;;;;;;;-4.51;100.00;99121.59;4992115;28;20471;-72
2021/11/23 04:29:24;;;;;;;9.20;8.30;;;;;;;-4.61;100.00;99120.16;4991044;28;20460;-70
2021/11/23 04:31:52;;;;;;;8.27;7.43;;;;;;;-4.69;100.00;99108.28;4978632;28;20480;-72
2021/11/23 04:34:20;;;;;;;7.27;6.57;;;;;;;-4.67;100.00;99116.84;4994034;28;20475;-70
2021/11/23 04:36:48;;;;;;;10.80;8.47;;;;;;;-4.73;100.00;99105.81;4974848;28;20788;-72
2021/11/23 04:39:18;;;;;;;9.03;8.23;;;;;;;-4.80;100.00;99118.03;4976245;28;20476;-73
2021/11/23 04:41:46;;;;;;;7.60;6.90;;;;;;;-4.79;100.00;99117.16;4978117;28;20488;-72
2021/11/23 04:44:15;;;;;;;9.03;7.73;;;;;;;-4.87;100.00;99112.19;4994380;28;20454;-69
2021/11/23 04:46:43;;;;;;;9.30;8.13;;;;;;;-4.88;100.00;99107.91;4987792;28;20706;-72
2021/11/23 04:49:11;;;;;;;8.50;7.73;;;;;;;-4.92;100.00;99116.63;4992436;28;20456;-70
2021/11/23 04:51:39;;;;;;;8.63;7.83;;;;;;;-4.97;100.00;99114.16;4991103;28;20471;-72
2021/11/23 04:54:07;;;;;;;7.93;7.23;;;;;;;-5.00;100.00;99119.41;4995029;28;20441;-70
2021/11/23 04:56:36;;;;;;;8.57;7.80;;;;;;;-4.98;100.00;99117.63;4961165;28;20693;-72
2021/11/23 04:59:05;;;;;;;8.77;7.87;;;;;;;-4.85;100.00;99122.47;4984882;28;20444;-73
2021/11/23 05:01:33;;;;;;;8.40;7.33;;;;;;;-4.82;100.00;99125.84;4979654;28;20490;-70
2021/11/23 05:04:01;;;;;;;9.23;7.67;;;;;;;-4.99;100.00;99122.81;4984819;28;21373;-72
2021/11/23 05:06:30;;;;;;;8.33;7.37;;;;;;;-5.04;100.00;99128.13;4967238;28;23530;-71
2021/11/23 05:08:58;;;;;;;9.13;8.30;;;;;;;-5.10;100.00;99136.88;4988620;28;20452;-71
2021/11/23 05:11:28;;;;;;;7.97;7.23;;;;;;;-5.13;100.00;99136.94;4952750;28;20468;-69
2021/11/23 05:14:00;;;;;;;8.47;7.60;;;;;;;-5.14;100.00;99134.38;4988318;28;20774;-72
2021/11/23 05:16:28;;;;;;;8.40;7.60;;;;;;;-5.17;100.00;99134.47;4991738;28;20577;-70
2021/11/23 05:18:56;;;;;;;8.47;7.67;;;;;;;-5.10;100.00;99138.63;4992138;28;20502;-72
2021/11/23 05:21:24;;;;;;;7.87;7.17;;;;;;;-5.01;100.00;99137.53;4988415;28;20477;-69
2021/11/23 05:23:53;;;;;;;8.10;7.40;;;;;;;-5.00;100.00;99145.25;4993699;28;20484;-72
2021/11/23 05:26:21;;;;;;;8.93;7.90;;;;;;;-4.86;100.00;99138.88;4962144;28;20940;-71
2021/11/23 05:28:49;;;;;;;10.00;9.00;;;;;;;-4.83;100.00;99139.66;4981100;28;20444;-73
2021/11/23 05:31:18;;;;;;;11.70;9.57;;;;;;;-4.73;100.00;99145.47;4990252;28;20472;-71
2021/11/23 05:33:46;;;;;;;8.93;8.03;;;;;;;-4.64;100.00;99141.78;4987922;28;20555;-75
2021/11/23 05:36:14;;;;;;;9.97;8.97;;;;;;;-4.59;100.00;99141.66;4972070;28;20492;-75
2021/11/23 05:38:42;;;;;;;10.13;8.73;;;;;;;-4.63;100.00;99137.47;4981872;28;20459;-75
2021/11/23 05:41:10;;;;;;;9.57;8.70;;;;;;;-4.59;100.00;99133.91;4974431;28;20464;-74
2021/11/23 05:43:38;;;;;;;11.20;10.10;;;;;;;-4.67;100.00;99134.97;4954597;28;21195;-75
2021/11/23 05:46:07;;;;;;;11.43;10.23;;;;;;;-4.55;100.00;99135.50;4982829;28;20439;-72
2021/11/23 05:48:36;;;;;;;11.27;10.10;;;;;;;-4.37;100.00;99135.00;4960860;28;20542;-74
2021/11/23 05:51:05;;;;;;;12.90;9.67;;;;;;;-4.10;100.00;99137.72;4985744;28;20507;-75
2021/11/23 05:53:34;;;;;;;9.50;8.57;;;;;;;-4.24;100.00;99147.63;4972967;28;20556;-72
2021/11/23 05:56:02;;;;;;;10.80;8.93;;;;;;;-4.30;100.00;99143.47;4990010;28;20455;-71
2021/11/23 05:58:30;;;;;;;10.70;9.60;;;;;;;-4.37;100.00;99150.53;4977813;28;20454;-72
2021/11/23 06:00:58;;;;;;;10.73;9.57;;;;;;;-4.40;100.00;99149.78;4992103;28;20988;-72
2021/11/23 06:03:28;;;;;;;10.73;9.33;;;;;;;-4.38;100.00;99153.19;4945813;28;20721;-70
2021/11/23 06:05:57;;;;;;;9.73;8.73;;;;;;;-4.44;100.00;99163.69;4987377;28;20837;-72
2021/11/23 06:08:25;;;;;;;9.53;8.67;;;;;;;-4.29;100.00;99167.63;4983332;28;20448;-69
2021/11/23 06:10:53;;;;;;;10.27;9.00;;;;;;;-4.36;100.00;99162.63;4991097;28;20479;-72
2021/11/23 06:13:22;;;;;;;9.47;8.47;;;;;;;-4.46;100.00;99163.72;4981589;28;21098;-69
2021/11/23 06:15:50;;;;;;;10.67;9.57;;;;;;;-4.52;100.00;99162.16;4973587;28;20453;-71
2021/11/23 06:18:18;;;;;;;10.87;9.53;;;;;;;-4.31;100.00;99164.22;4948729;28;20673;-73
2021/11/23 06:20:47;;;;;;;11.20;9.80;;;;;;;-4.46;100.00;99171.50;4990515;28;20490;-74
2021/11/23 06:23:18;;;;;;;11.07;9.97;;;;;;;-4.53;100.00;99175.13;4989300;28;20480;-73
2021/11/23 06:25:47;;;;;;;12.10;9.70;;;;;;;-4.42;100.00;99178.28;4991092;28;20448;-73
2021/11/23 06:28:16;;;;;;;10.47;9.27;;;;;;;-4.50;100.00;99193.16;4993512;28;20447;-73
2021/11/23 06:30:44;;;;;;;17.27;12.37;;;;;;;-4.57;100.00;99195.06;4982836;28;20476;-73
2021/11/23 06:33:12;;;;;;;26.30;15.43;;;;;;;-4.59;100.00;99196.00;4952561;28;20503;-71
2021/11/23 06:35:41;;;;;;;18.27;15.80;;;;;;;-4.60;100.00;99215.81;4991725;28;20450;-74
2021/11/23 06:38:10;;;;;;;19.90;17.73;;;;;;;-4.71;100.00;99212.66;4986004;28;20445;-71
2021/11/23 06:40:39;;;;;;;12.50;10.90;;;;;;;-4.82;100.00;99216.38;4991402;28;20494;-73
2021/11/23 06:43:07;;;;;;;11.27;9.87;;;;;;;-4.89;100.00;99224.31;4992290;28;20903;-71
2021/11/23 06:45:36;;;;;;;11.17;10.10;;;;;;;-4.91;100.00;99218.31;4991410;28;20828;-74
2021/11/23 06:48:05;;;;;;;13.17;10.23;;;;;;;-4.98;100.00;99226.22;4956972;28;20463;-70
2021/11/23 06:50:33;;;;;;;10.33;9.33;;;;;;;-4.94;100.00;99237.31;4986573;28;20467;-73
2021/11/23 06:53:02;;;;;;;10.37;9.27;;;;;;;-4.99;100.00;99232.28;4996050;28;20455;-71
2021/11/23 06:55:30;;;;;;;9.97;8.97;;;;;;;-5.07;100.00;99241.97;4999539;28;20855;-73
2021/11/23 06:58:00;;;;;;;9.93;8.93;;;;;;;-5.01;100.00;99243.53;4992179;28;20448;-71
2021/11/23 07:00:29;;;;;;;10.80;9.67;;;;;;;-5.04;100.00;99246.19;4994119;28;20664;-73
2021/11/23 07:02:57;;;;;;;11.90;10.77;;;;;;;-5.01;100.00;99246.13;4963249;28;20456;-70
2021/11/23 07:05:26;;;;;;;18.27;15.97;;;;;;;-5.04;100.00;99239.31;4972674;28;20767;-72
2021/11/23 07:08:12;;;;;;;43.83;39.93;;;;;;;-4.95;100.00;99243.38;4988690;28;20805;-69
2021/11/23 07:10:41;;;;;;;15.00;12.57;;;;;;;-4.90;100.00;99249.34;4989937;28;20516;-72
2021/11/23 07:13:10;;;;;;;10.90;9.33;;;;;;;-4.75;100.00;99247.25;4988704;28;20463;-70
2021/11/23 07:15:38;;;;;;;12.97;11.63;;;;;;;-4.84;100.00;99241.44;4994704;28;20453;-71
2021/11/23 07:18:06;;;;;;;9.83;8.83;;;;;;;-4.80;100.00;99239.59;4978038;28;20462;-70
2021/11/23 07:20:35;;;;;;;15.83;11.20;;;;;;;-4.69;100.00;99242.78;4959101;28;20471;-72
2021/11/23 07:23:03;;;;;;;11.50;9.83;;;;;;;-4.48;100.00;99237.97;4989763;28;20471;-71
2021/11/23 07:25:31;;;;;;;11.73;9.67;;;;;;;-4.43;100.00;99230.94;4994741;28;20474;-72
2021/11/23 07:28:00;;;;;;;10.57;9.23;;;;;;;-4.41;100.00;99231.75;4987889;28;20445;-70
2021/11/23 07:30:29;;;;;;;17.03;14.73;;;;;;;-4.39;100.00;99236.88;4991927;28;20480;-72
2021/11/23 07:32:58;;;;;;;29.40;20.00;;;;;;;-4.36;100.00;99234.22;4981749;28;20465;-70
2021/11/23 07:35:26;;;;;;;24.70;15.37;;;;;;;-4.26;100.00;99232.25;4955119;28;20838;-72
2021/11/23 07:37:54;;;;;;;12.77;10.77;;;;;;;-4.11;100.00;99244.78;4991920;28;20816;-70
2021/11/23 07:40:22;;;;;;;14.40;9.63;;;;;;;-4.06;100.00;99229.13;4987153;28;20761;-72
2021/11/23 07:42:50;;;;;;;14.17;11.93;;;;;;;-4.02;100.00;99228.16;4997895;28;20802;-72
2021/11/23 07:45:39;;;;;;;23.97;17.27;;;;;;;-4.01;100.00;99240.22;4992731;28;20647;-72
2021/11/23 07:48:08;;;;;;;19.23;17.13;;;;;;;-3.90;100.00;99239.06;4974905;28;20456;-70
2021/11/23 07:50:36;;;;;;;17.83;11.53;;;;;;;-3.83;100.00;99243.19;4959086;28;20800;-72
2021/11/23 07:53:04;;;;;;;11.00;9.80;;;;;;;-3.69;100.00;99250.56;4991217;28;20913;-72
2021/11/23 07:55:33;;;;;;;14.80;12.13;;;;;;;-3.67;100.00;99252.22;4954818;28;20722;-74
2021/11/23 07:58:02;;;;;;;13.63;11.63;;;;;;;-3.53;100.00;99249.25;4987789;28;20453;-73
2021/11/23 08:00:30;;;;;;;19.90;15.60;;;;;;;-3.55;100.00;99247.59;4986874;28;20728;-73
2021/11/23 08:02:59;;;;;;;13.20;10.70;;;;;;;-3.46;100.00;99244.72;4973910;28;20452;-72
2021/11/23 08:05:27;;;;;;;12.83;11.53;;;;;;;-3.54;100.00;99247.56;4986450;28;20478;-72
2021/11/23 08:07:55;;;;;;;14.93;11.20;;;;;;;-3.49;100.00;99250.84;4994375;28;20451;-73
2021/11/23 08:10:24;;;;;;;12.70;10.40;;;;;;;-3.43;100.00;99249.81;4955854;28;20903;-70
2021/11/23 08:12:52;;;;;;;14.83;12.77;;;;;;;-3.32;100.00;99246.91;4992356;28;20205;-72
2021/11/23 08:15:21;;;;;;;13.47;11.60;;;;;;;-3.36;100.00;99256.53;4988887;28;20440;-70
2021/11/23 08:17:49;;;;;;;17.53;11.57;;;;;;;-3.35;100.00;99254.78;4982349;28;21073;-72
2021/11/23 08:20:19;;;;;;;12.60;10.47;;;;;;;-3.26;100.00;99257.09;4990762;28;20473;-70
2021/11/23 08:22:48;;;;;;;28.27;18.83;;;;;;;-3.17;100.00;99258.56;4988741;28;20449;-73
2021/11/23 08:25:16;;;;;;;16.83;14.00;;;;;;;-3.05;100.00;99268.56;4959701;28;20492;-70
2021/11/23 08:27:44;;;;;;;14.87;11.70;;;;;;;-2.99;100.00;99264.94;4983020;28;20448;-72
2021/11/23 08:30:13;;;;;;;11.93;10.60;;;;;;;-3.01;100.00;99265.91;4989511;28;20481;-70
2021/11/23 08:32:42;;;;;;;12.13;10.83;;;;;;;-2.92;100.00;99268.22;4980060;28;20813;-72
2021/11/23 08:35:11;;;;;;;11.23;10.03;;;;;;;-2.89;100.00;99254.28;4987827;28;20441;-70
2021/11/23 08:37:40;;;;;;;10.97;9.87;;;;;;;-2.89;100.00;99256.88;4989965;28;20721;-72
2021/11/23 08:40:10;;;;;;;13.40;10.87;;;;;;;-2.77;100.00;99256.50;4980599;28;20460;-70
2021/11/23 08:42:39;;;;;;;15.53;11.80;;;;;;;-2.68;100.00;99258.81;4970372;28;20662;-72
2021/11/23 08:45:08;;;;;;;14.87;12.10;;;;;;;-2.59;100.00;99256.81;4988327;28;20776;-70
2021/11/23 08:47:36;;;;;;;14.13;10.97;;;;;;;-2.39;100.00;99266.53;4980258;28;21299;-72
2021/11/23 08:50:06;;;;;;;33.93;24.60;;;;;;;-2.43;100.00;99271.00;4993486;28;20467;-72
2021/11/23 08:52:35;;;;;;;18.23;14.83;;;;;;;-2.37;100.00;99263.00;4986824;28;20888;-72
2021/11/23 08:55:05;;;;;;;16.43;12.43;;;;;;;-2.20;100.00;99258.97;4990719;28;20452;-70
2021/11/23 08:57:34;;;;;;;18.67;15.00;;;;;;;-2.14;100.00;99253.56;4960418;28;20676;-72
2021/11/23 09:00:13;;;;;;;15.83;13.80;;;;;;;-2.15;100.00;99259.66;4984355;28;20466;-72
2021/11/23 09:02:42;;;;;;;16.83;15.20;;;;;;;-2.03;100.00;99258.41;4974305;28;20613;-71
2021/11/23 09:05:11;;;;;;;13.10;11.83;;;;;;;-1.93;100.00;99258.94;4989998;28;20225;-70
2021/11/23 09:07:40;;;;;;;12.27;10.90;;;;;;;-1.94;100.00;99245.06;4986845;28;21030;-72
2021/11/23 09:10:15;;;;;;;14.77;11.33;;;;;;;-1.71;100.00;99250.34;4988459;28;20472;-70
2021/11/23 09:12:43;;;;;;;10.07;9.17;;;;;;;-1.69;100.00;99240.78;4956095;28;20216;-72
2021/11/23 09:15:11;;;;;;;14.67;11.53;;;;;;;-1.68;100.00;99251.09;4985171;28;20460;-70
2021/11/23 09:17:40;;;;;;;12.70;11.50;;;;;;;-1.58;100.00;99253.34;4978311;28;21016;-73
2021/11/23 09:20:09;;;;;;;10.90;9.80;;;;;;;-1.43;100.00;99251.94;4988664;28;20609;-71
2021/11/23 09:22:39;;;;;;;14.30;12.90;;;;;;;-1.35;100.00;99245.56;4985689;28;20452;-70
2021/11/23 09:25:10;;;;;;;11.97;10.87;;;;;;;-1.16;100.00;99250.06;4983917;28;20353;-70
2021/11/23 09:27:38;;;;;;;11.27;9.97;;;;;;;-1.18;100.00;99254.47;4954860;28;20447;-72
2021/11/23 09:30:08;;;;;;;13.10;11.67;;;;;;;-1.20;100.00;99258.88;4983558;28;20479;-69
2021/11/23 09:32:36;;;;;;;11.10;10.10;;;;;;;-1.13;100.00;99251.69;4972346;28;22829;-72
2021/11/23 09:35:05;;;;;;;9.90;9.00;;;;;;;-1.01;100.00;99259.03;4986866;28;20497;-72
2021/11/23 09:37:33;;;;;;;10.63;9.53;;;;;;;-0.97;100.00;99259.75;4987645;28;20760;-72
2021/11/23 09:40:01;;;;;;;10.30;9.30;;;;;;;-0.88;100.00;99262.00;4984228;28;20252;-73
2021/11/23 09:42:30;;;;;;;10.57;9.47;;;;;;;-0.83;100.00;99262.66;4986014;28;20786;-71
2021/11/23 09:44:58;;;;;;;10.53;9.50;;;;;;;-0.75;100.00;99260.63;4952039;28;20650;-69
2021/11/23 09:47:26;;;;;;;10.33;9.27;;;;;;;-0.67;100.00;99252.50;4980206;28;20452;-71
2021/11/23 09:49:55;;;;;;;11.63;10.53;;;;;;;-0.61;100.00;99254.00;4980706;28;20217;-71
2021/11/23 09:52:23;;;;;;;9.60;8.43;;;;;;;-0.57;100.00;99259.91;4987553;28;20224;-70
2021/11/23 09:54:51;;;;;;;10.83;9.83;;;;;;;-0.41;100.00;99253.19;4983459;28;20205;-71
2021/11/23 09:57:19;;;;;;;10.00;9.00;;;;;;;0.07;100.00;99253.78;4990242;28;20782;-70
2021/11/23 09:59:48;;;;;;;12.53;9.73;;;;;;;0.23;100.00;99246.16;4960907;28;20253;-72
2021/11/23 10:02:25;;;;;;;10.27;9.23;;;;;;;0.10;100.00;99239.75;4955577;28;21168;-72
2021/11/23 10:05:00;;;;;;;10.97;9.87;;;;;;;0.18;100.00;99250.69;4985688;28;20430;-72
2021/11/23 10:07:36;;;;;;;10.57;9.57;;;;;;;0.20;100.00;99241.06;4990312;28;20215;-72
2021/11/23 10:10:13;;;;;;;9.37;8.17;;;;;;;0.03;100.00;99236.59;4978523;28;20239;-72
2021/11/23 10:12:50;;;;;;;10.77;9.63;;;;;;;0.29;100.00;99229.38;4989633;28;20213;-69
2021/11/23 10:15:23;;;;;;;9.33;8.37;;;;;;;0.27;100.00;99231.19;4982610;28;20219;-71
2021/11/23 10:17:52;;;;;;;9.13;8.33;;;;;;;0.41;100.00;99231.44;4957695;28;20481;-70
2021/11/23 10:20:35;;;;;;;11.07;9.07;;;;;;;0.45;100.00;99232.13;4986675;28;20275;-72
2021/11/23 10:23:21;;;;;;;11.23;8.93;;;;;;;0.53;100.00;99221.38;4985138;28;20419;-72
2021/11/23 10:25:51;;;;;;;10.27;7.43;;;;;;;0.51;100.00;99223.19;4975660;28;20300;-69
2021/11/23 10:28:22;;;;;;;7.97;7.33;;;;;;;0.42;100.00;99227.06;4987859;28;20213;-72
2021/11/23 10:30:52;;;;;;;9.40;8.30;;;;;;;0.50;100.00;99221.50;4973936;28;20236;-70
2021/11/23 10:33:20;;;;;;;9.50;8.63;;;;;;;0.54;100.00;99223.88;4961169;28;20233;-70
2021/11/23 10:35:52;;;;;;;10.23;9.13;;;;;;;0.76;100.00;99233.34;4981088;28;20229;-70
2021/11/23 10:38:20;;;;;;;11.17;9.93;;;;;;;0.79;100.00;99227.97;4989458;28;20222;-72
2021/11/23 10:40:50;;;;;;;9.33;8.47;;;;;;;0.86;100.00;99229.38;4987890;28;20231;-70
2021/11/23 10:43:20;;;;;;;9.63;8.80;;;;;;;0.85;100.00;99229.47;4990363;28;20205;-73
2021/11/23 10:45:51;;;;;;;9.60;8.63;;;;;;;0.97;100.00;99222.84;4989414;28;20236;-70
2021/11/23 10:48:22;;;;;;;9.30;8.50;;;;;;;1.00;100.00;99220.06;4951905;28;20458;-72
2021/11/23 10:51:05;;;;;;;12.60;9.03;;;;;;;1.03;100.00;99219.94;4983350;28;20515;-70
2021/11/23 10:53:34;;;;;;;10.10;9.20;;;;;;;1.14;100.00;99214.19;4992650;28;20206;-70
2021/11/23 10:56:16;;;;;;;10.03;9.07;;;;;;;1.18;100.00;99210.50;4984797;28;20495;-72
2021/11/23 10:58:46;;;;;;;10.33;9.33;;;;;;;1.21;100.00;99205.13;4978644;28;20225;-69
2021/11/23 11:01:18;;;;;;;10.50;9.50;;;;;;;1.40;100.00;99210.31;4989879;28;20224;-72
2021/11/23 11:03:46;;;;;;;10.00;8.73;;;;;;;1.42;100.00;99200.63;4943346;28;20220;-69
2021/11/23 11:06:14;;;;;;;8.87;8.07;;;;;;;1.47;100.00;99192.53;4986862;28;20233;-72
2021/11/23 11:08:45;;;;;;;9.63;8.63;;;;;;;1.62;100.00;99197.94;4981446;28;20229;-70
2021/11/23 11:11:16;;;;;;;10.70;9.10;;;;;;;1.86;100.00;99185.38;4993716;28;20244;-72
2021/11/23 11:13:48;;;;;;;11.47;10.40;;;;;;;2.04;100.00;99186.19;4986824;28;20205;-70
2021/11/23 11:16:20;;;;;;;9.43;8.53;;;;;;;2.10;100.00;99192.88;4989611;28;20214;-72
2021/11/23 11:19:04;;;;;;;9.60;8.70;;;;;;;2.26;100.00;99182.41;4949528;28;20232;-70
2021/11/23 11:21:32;;;;;;;10.07;8.67;;;;;;;2.45;100.00;99182.28;4990400;28;20228;-71
2021/11/23 11:24:26;;;;;;;9.57;8.67;;;;;;;2.64;100.00;99181.28;4985770;28;20304;-72
2021/11/23 11:27:00;;;;;;;11.33;8.77;;;;;;;2.69;100.00;99176.66;4990382;28;20225;-73
2021/11/23 11:29:29;;;;;;;8.57;7.70;;;;;;;2.96;100.00;99178.66;4995369;28;20211;-72
2021/11/23 11:31:59;;;;;;;9.43;7.87;;;;;;;3.14;100.00;99180.22;4983714;28;20777;-72